createdAt,value
2023-01-23T00:01:19.435Z,101487.06
2023-01-23T00:03:50.546Z,101487.91
2023-01-23T00:06:21.865Z,101488.13
2023-01-23T00:08:52.346Z,101488.50
2023-01-23T00:11:25.964Z,101491.41
2023-01-23T00:13:57.900Z,101480.63
2023-01-23T00:16:32.152Z,101483.44
2023-01-23T00:19:03.583Z,101491.97
2023-01-23T00:21:34.748Z,101495.00
2023-01-23T00:24:06.301Z,101492.00
2023-01-23T00:26:36.714Z,101484.75
2023-01-23T00:29:08.196Z,101479.28
2023-01-23T00:31:41.146Z,101482.22
2023-01-23T00:34:16.190Z,101468.91
2023-01-23T00:36:47.713Z,101447.03
2023-01-23T00:39:21.977Z,101465.16
2023-01-23T00:41:53.301Z,101457.94
2023-01-23T00:44:24.535Z,101455.09
2023-01-23T00:46:55.572Z,101454.13
2023-01-23T00:49:28.692Z,101454.91
2023-01-23T00:51:59.850Z,101454.38
2023-01-23T00:54:31.924Z,101448.00
2023-01-23T00:57:03.016Z,101454.97
2023-01-23T00:59:33.570Z,101456.25
2023-01-23T01:02:04.658Z,101456.00
2023-01-23T01:04:35.927Z,101448.66
2023-01-23T01:07:07.060Z,101456.34
2023-01-23T01:09:37.467Z,101447.38
2023-01-23T01:12:08.847Z,101435.50
2023-01-23T01:14:41.316Z,101451.25
2023-01-23T01:17:12.352Z,101446.47
2023-01-23T01:19:43.236Z,101448.00
2023-01-23T01:22:14.126Z,101447.69
2023-01-23T01:24:45.539Z,101452.13
2023-01-23T01:27:16.641Z,101442.25
2023-01-23T01:29:47.871Z,101440.25
2023-01-23T01:32:18.972Z,101434.19
2023-01-23T01:34:54.193Z,101428.56
2023-01-23T01:37:26.680Z,101431.78
2023-01-23T01:39:57.855Z,101435.97
2023-01-23T01:42:30.184Z,101434.47
2023-01-23T01:45:03.049Z,101424.59
2023-01-23T01:47:34.035Z,101431.88
2023-01-23T01:50:05.594Z,101424.38
2023-01-23T01:52:36.503Z,101427.53
2023-01-23T01:55:07.388Z,101429.81
2023-01-23T01:57:42.314Z,101418.84
2023-01-23T02:00:17.479Z,101420.25
2023-01-23T02:03:04.199Z,101419.34
2023-01-23T02:05:40.534Z,101413.06
2023-01-23T02:08:43.921Z,101413.69
2023-01-23T02:11:16.609Z,101400.72
2023-01-23T02:13:47.939Z,101407.66
2023-01-23T02:16:23.874Z,101396.13
2023-01-23T02:18:58.968Z,101381.56
2023-01-23T02:21:31.073Z,101394.06
2023-01-23T02:24:16.809Z,101389.19
2023-01-23T02:26:48.789Z,101390.91
2023-01-23T02:29:21.769Z,101384.63
2023-01-23T02:31:58.147Z,101393.56
2023-01-23T02:34:29.877Z,101386.69
2023-01-23T02:37:04.472Z,101382.91
2023-01-23T02:39:34.835Z,101386.75
2023-01-23T02:42:06.229Z,101375.66
2023-01-23T02:44:49.515Z,101374.97
2023-01-23T02:47:22.600Z,101383.13
2023-01-23T02:49:53.701Z,101374.38
2023-01-23T02:52:25.673Z,101375.09
2023-01-23T02:54:56.998Z,101385.53
2023-01-23T02:57:28.757Z,101382.59
2023-01-23T03:00:17.940Z,101379.00
2023-01-23T03:02:50.877Z,101375.81
2023-01-23T03:05:22.284Z,101371.28
2023-01-23T03:07:56.109Z,101366.16
2023-01-23T03:10:27.263Z,101352.31
2023-01-23T03:13:03.500Z,101351.63
2023-01-23T03:15:43.719Z,101346.19
2023-01-23T03:18:14.778Z,101354.44
2023-01-23T03:20:46.037Z,101356.53
2023-01-23T03:23:18.237Z,101354.94
2023-01-23T03:25:50.504Z,101357.34
2023-01-23T03:28:39.613Z,101355.22
2023-01-23T03:31:11.262Z,101350.06
2023-01-23T03:33:44.725Z,101351.72
2023-01-23T03:36:17.445Z,101361.09
2023-01-23T03:39:06.386Z,101352.53
2023-01-23T03:41:39.619Z,101350.94
2023-01-23T03:44:11.586Z,101345.50
2023-01-23T03:46:43.927Z,101352.97
2023-01-23T03:49:15.262Z,101348.59
2023-01-23T03:51:46.827Z,101349.16
2023-01-23T03:54:20.694Z,101345.50
2023-01-23T03:56:51.797Z,101343.47
2023-01-23T03:59:41.036Z,101339.78
2023-01-23T04:02:11.557Z,101342.13
2023-01-23T04:04:43.194Z,101341.50
2023-01-23T04:07:14.472Z,101348.13
2023-01-23T04:09:47.365Z,101339.00
2023-01-23T04:12:18.636Z,101341.03
2023-01-23T04:14:52.164Z,101337.50
2023-01-23T04:17:22.625Z,101327.47
2023-01-23T04:19:54.918Z,101337.66
2023-01-23T04:22:25.894Z,101327.72
2023-01-23T04:24:56.961Z,101326.69
2023-01-23T04:27:28.012Z,101323.34
2023-01-23T04:30:00.458Z,101322.41
2023-01-23T04:32:32.959Z,101314.94
2023-01-23T04:35:06.998Z,101321.38
2023-01-23T04:37:40.847Z,101307.50
2023-01-23T04:40:13.382Z,101317.19
2023-01-23T04:42:54.458Z,101317.75
2023-01-23T04:45:38.577Z,101310.09
2023-01-23T04:48:30.402Z,101307.06
2023-01-23T04:51:02.010Z,101305.47
2023-01-23T04:53:33.595Z,101305.09
2023-01-23T04:56:06.126Z,101301.78
2023-01-23T04:58:37.444Z,101303.50
2023-01-23T05:01:10.013Z,101296.38
2023-01-23T05:03:41.299Z,101303.06
2023-01-23T05:06:12.767Z,101311.50
2023-01-23T05:08:43.914Z,101305.38
2023-01-23T05:11:22.821Z,101300.94
2023-01-23T05:13:54.210Z,101297.47
2023-01-23T05:16:25.026Z,101302.53
2023-01-23T05:19:13.809Z,101318.25
2023-01-23T05:21:46.072Z,101317.88
2023-01-23T05:24:23.378Z,101315.25
2023-01-23T05:26:54.861Z,101308.75
2023-01-23T05:29:27.651Z,101323.72
2023-01-23T05:32:14.727Z,101323.41
2023-01-23T05:35:01.980Z,101321.25
2023-01-23T05:37:34.682Z,101317.94
2023-01-23T05:40:10.765Z,101325.22
2023-01-23T05:42:59.969Z,101324.25
2023-01-23T05:45:50.854Z,101331.81
2023-01-23T05:48:35.643Z,101324.53
2023-01-23T05:51:11.976Z,101329.59
2023-01-23T05:53:43.415Z,101329.22
2023-01-23T05:56:14.690Z,101322.63
2023-01-23T05:59:06.778Z,101325.44
2023-01-23T06:01:53.097Z,101330.97
2023-01-23T06:04:42.525Z,101324.88
2023-01-23T06:07:26.505Z,101334.75
2023-01-23T06:10:00.543Z,101334.50
2023-01-23T06:12:33.178Z,101330.72
2023-01-23T06:15:04.341Z,101347.69
2023-01-23T06:17:36.352Z,101356.66
2023-01-23T06:20:07.492Z,101347.66
2023-01-23T06:22:38.841Z,101351.78
2023-01-23T06:25:14.473Z,101354.03
2023-01-23T06:27:45.609Z,101355.38
2023-01-23T06:30:17.983Z,101353.53
2023-01-23T06:32:50.569Z,101360.00
2023-01-23T06:35:25.145Z,101354.16
2023-01-23T06:37:56.089Z,101359.25
2023-01-23T06:40:28.024Z,101355.28
2023-01-23T06:43:11.327Z,101370.78
2023-01-23T06:45:55.920Z,101366.75
2023-01-23T06:48:28.053Z,101379.38
2023-01-23T06:51:02.442Z,101381.13
2023-01-23T06:53:34.376Z,101377.75
2023-01-23T06:56:08.268Z,101377.13
2023-01-23T06:58:41.395Z,101375.06
2023-01-23T07:01:21.428Z,101378.81
2023-01-23T07:04:15.376Z,101370.16
2023-01-23T07:06:47.873Z,101383.38
2023-01-23T07:09:21.538Z,101387.97
2023-01-23T07:12:05.719Z,101381.00
2023-01-23T07:14:37.457Z,101391.88
2023-01-23T07:17:10.747Z,101392.66
2023-01-23T07:19:41.699Z,101402.09
2023-01-23T07:22:20.249Z,101403.00
2023-01-23T07:24:51.420Z,101396.84
2023-01-23T07:27:22.527Z,101396.25
2023-01-23T07:29:53.921Z,101397.56
2023-01-23T07:32:25.228Z,101399.22
2023-01-23T07:34:56.173Z,101400.72
2023-01-23T07:37:27.118Z,101402.22
2023-01-23T07:39:58.045Z,101402.66
2023-01-23T07:42:29.476Z,101398.81
2023-01-23T07:45:00.661Z,101400.56
2023-01-23T07:47:32.903Z,101406.84
2023-01-23T07:50:04.134Z,101407.53
2023-01-23T07:52:35.880Z,101415.50
2023-01-23T07:55:07.698Z,101422.44
2023-01-23T07:57:38.858Z,101430.50
2023-01-23T08:00:11.219Z,101429.63
2023-01-23T08:02:44.855Z,101438.03
2023-01-23T08:05:15.896Z,101440.25
2023-01-23T08:07:46.856Z,101449.44
2023-01-23T08:10:18.282Z,101462.31
2023-01-23T08:12:49.609Z,101468.06
2023-01-23T08:15:20.737Z,101475.91
2023-01-23T08:17:51.878Z,101471.09
2023-01-23T08:20:24.500Z,101469.66
2023-01-23T08:22:55.570Z,101468.41
2023-01-23T08:25:26.799Z,101470.63
2023-01-23T08:27:57.745Z,101483.50
2023-01-23T08:30:28.921Z,101483.25
2023-01-23T08:33:00.141Z,101479.38
2023-01-23T08:35:31.099Z,101492.78
2023-01-23T08:38:03.891Z,101503.72
2023-01-23T08:40:35.025Z,101501.97
2023-01-23T08:43:06.369Z,101504.56
2023-01-23T08:45:37.280Z,101503.78
2023-01-23T08:48:08.950Z,101506.03
2023-01-23T08:50:40.053Z,101510.94
2023-01-23T08:53:10.923Z,101512.09
2023-01-23T08:55:42.336Z,101516.44
2023-01-23T08:58:14.585Z,101505.22
2023-01-23T09:00:45.685Z,101511.72
2023-01-23T09:03:16.877Z,101509.59
2023-01-23T09:05:47.976Z,101510.97
2023-01-23T09:08:20.085Z,101516.31
2023-01-23T09:10:51.025Z,101509.97
2023-01-23T09:13:22.173Z,101516.75
2023-01-23T09:15:53.599Z,101522.75
2023-01-23T09:18:26.327Z,101521.41
2023-01-23T09:20:57.806Z,101522.06
2023-01-23T09:23:29.377Z,101524.25
2023-01-23T09:26:04.353Z,101532.41
2023-01-23T09:28:35.621Z,101538.91
2023-01-23T09:31:09.102Z,101548.56
2023-01-23T09:33:39.989Z,101545.81
2023-01-23T09:36:11.634Z,101541.13
2023-01-23T09:38:42.940Z,101547.72
2023-01-23T09:41:23.463Z,101543.38
2023-01-23T09:44:08.840Z,101546.94
2023-01-23T09:47:03.692Z,101555.66
2023-01-23T09:50:07.056Z,101554.84
2023-01-23T09:53:01.090Z,101565.75
2023-01-23T09:55:46.968Z,101554.28
2023-01-23T09:58:33.250Z,101558.38
2023-01-23T10:01:04.367Z,101569.03
2023-01-23T10:03:35.466Z,101560.03
2023-01-23T10:06:15.203Z,101566.84
2023-01-23T10:09:06.260Z,101572.28
2023-01-23T10:11:58.349Z,101565.72
2023-01-23T10:14:49.872Z,101581.03
2023-01-23T10:17:33.066Z,101578.84
2023-01-23T10:20:22.424Z,101573.38
2023-01-23T10:23:09.350Z,101574.50
2023-01-23T10:25:42.438Z,101574.22
2023-01-23T10:28:16.258Z,101579.94
2023-01-23T10:30:52.046Z,101580.75
2023-01-23T10:33:23.225Z,101566.31
2023-01-23T10:35:58.406Z,101582.94
2023-01-23T10:38:35.575Z,101586.22
2023-01-23T10:41:19.917Z,101579.41
2023-01-23T10:43:56.491Z,101582.94
2023-01-23T10:46:39.696Z,101593.59
2023-01-23T10:49:10.731Z,101587.56
2023-01-23T10:51:49.255Z,101577.22
2023-01-23T10:54:31.867Z,101575.28
2023-01-23T10:57:24.341Z,101575.03
2023-01-23T10:59:58.652Z,101589.78
2023-01-23T11:02:42.235Z,101597.41
2023-01-23T11:05:50.714Z,101599.06
2023-01-23T11:08:34.873Z,101610.50
2023-01-23T11:11:17.584Z,101611.03
2023-01-23T11:13:52.599Z,101616.53
2023-01-23T11:16:24.983Z,101620.31
2023-01-23T11:19:07.616Z,101623.00
2023-01-23T11:21:41.143Z,101609.06
2023-01-23T11:24:40.278Z,101606.63
2023-01-23T11:27:22.357Z,101609.66
2023-01-23T11:30:02.589Z,101606.81
2023-01-23T11:32:35.699Z,101603.59
2023-01-23T11:35:19.812Z,101612.03
2023-01-23T11:37:51.381Z,101607.59
2023-01-23T11:40:22.848Z,101617.91
2023-01-23T11:42:54.124Z,101612.28
2023-01-23T11:45:24.740Z,101617.72
2023-01-23T11:48:14.068Z,101620.97
2023-01-23T11:51:03.006Z,101613.91
2023-01-23T11:53:50.446Z,101603.31
2023-01-23T11:56:39.505Z,101609.28
2023-01-23T11:59:15.789Z,101620.16
2023-01-23T12:02:15.083Z,101617.41
2023-01-23T12:05:27.823Z,101618.72
2023-01-23T12:08:34.805Z,101621.16
2023-01-23T12:11:18.109Z,101616.84
2023-01-23T12:14:14.959Z,101614.09
2023-01-23T12:16:51.464Z,101608.38
2023-01-23T12:19:42.244Z,101601.13
2023-01-23T12:22:44.476Z,101603.78
2023-01-23T12:25:37.621Z,101599.69
2023-01-23T12:28:18.111Z,101597.22
2023-01-23T12:31:21.559Z,101586.53
2023-01-23T12:33:57.544Z,101589.34
2023-01-23T12:37:10.208Z,101597.00
2023-01-23T12:40:00.004Z,101596.72
2023-01-23T12:42:55.639Z,101602.47
2023-01-23T12:45:29.564Z,101603.00
2023-01-23T12:48:38.610Z,101601.31
2023-01-23T12:51:25.639Z,101609.38
2023-01-23T12:53:58.653Z,101609.38
2023-01-23T12:56:36.041Z,101612.09
2023-01-23T12:59:28.039Z,101604.50
2023-01-23T13:02:17.633Z,101599.53
2023-01-23T13:05:02.541Z,101603.78
2023-01-23T13:08:09.684Z,101602.66
2023-01-23T13:11:07.823Z,101608.69
2023-01-23T13:13:38.910Z,101602.13
2023-01-23T13:16:15.822Z,101598.84
2023-01-23T13:19:18.519Z,101596.03
2023-01-23T13:22:31.453Z,101599.63
2023-01-23T13:25:25.114Z,101600.53
2023-01-23T13:28:46.225Z,101612.78
2023-01-23T13:31:36.102Z,101603.56
2023-01-23T13:34:19.393Z,101608.59
2023-01-23T13:36:55.037Z,101606.88
2023-01-23T13:39:29.388Z,101612.06
2023-01-23T13:42:16.021Z,101618.84
2023-01-23T13:45:20.733Z,101602.38
2023-01-23T14:27:44.439Z,101610.25
2023-01-23T14:30:27.781Z,101609.50
2023-01-23T14:33:00.487Z,101607.19
2023-01-23T14:35:33.927Z,101602.84
2023-01-23T14:38:08.640Z,101610.81
2023-01-23T14:40:51.140Z,101613.34
2023-01-23T14:43:29.698Z,101614.19
2023-01-23T14:46:15.994Z,101618.06
2023-01-23T14:48:51.941Z,101612.03
2023-01-23T14:51:28.639Z,101623.22
2023-01-23T14:54:00.893Z,101632.63
2023-01-23T14:56:40.088Z,101631.13
2023-01-23T14:59:23.015Z,101622.97
2023-01-23T15:02:10.197Z,101620.38
2023-01-23T15:05:26.384Z,101619.50
2023-01-23T15:08:20.958Z,101628.13
2023-01-23T15:10:53.999Z,101634.78
2023-01-23T15:13:49.106Z,101624.88
2023-01-23T15:16:25.796Z,101635.75
2023-01-23T15:19:01.151Z,101635.13
2023-01-23T15:21:39.416Z,101636.44
2023-01-23T15:24:16.649Z,101650.63
2023-01-23T15:26:58.412Z,101644.66
2023-01-23T15:29:28.841Z,101640.16
2023-01-23T15:32:00.998Z,101636.66
2023-01-23T15:34:36.625Z,101634.72
2023-01-23T15:37:12.041Z,101619.72
2023-01-23T15:39:48.987Z,101634.88
2023-01-23T15:42:20.007Z,101635.16
2023-01-23T15:44:54.711Z,101633.56
2023-01-23T15:47:26.095Z,101641.69
2023-01-23T15:49:57.744Z,101637.94
2023-01-23T15:52:31.609Z,101638.44
2023-01-23T15:55:05.742Z,101647.19
2023-01-23T15:57:36.972Z,101641.75
2023-01-23T16:00:26.789Z,101643.97
2023-01-23T16:02:59.398Z,101636.34
2023-01-23T16:05:34.812Z,101637.97
2023-01-23T16:08:07.619Z,101643.38
2023-01-23T16:10:41.776Z,101642.22
2023-01-23T16:13:15.303Z,101647.50
2023-01-23T16:15:46.302Z,101643.28
2023-01-23T16:18:17.796Z,101649.81
2023-01-23T16:20:48.970Z,101653.13
2023-01-23T16:23:31.252Z,101660.19
2023-01-23T16:26:07.178Z,101658.72
2023-01-23T16:28:38.463Z,101662.41
2023-01-23T16:31:10.878Z,101666.44
2023-01-23T16:33:42.229Z,101668.41
2023-01-23T16:36:20.315Z,101678.13
2023-01-23T16:38:57.788Z,101667.69
2023-01-23T16:41:28.581Z,101672.28
2023-01-23T16:43:59.512Z,101672.59
2023-01-23T16:46:30.660Z,101664.69
2023-01-23T16:49:01.793Z,101674.75
2023-01-23T16:51:33.482Z,101676.44
2023-01-23T16:54:17.646Z,101693.91
2023-01-23T16:56:54.189Z,101688.00
2023-01-23T16:59:37.479Z,101696.22
2023-01-23T17:02:19.495Z,101698.25
2023-01-23T17:04:51.099Z,101704.50
2023-01-23T17:07:22.919Z,101696.88
2023-01-23T17:09:54.360Z,101702.84
2023-01-23T17:12:31.319Z,101704.97
2023-01-23T17:15:05.003Z,101703.75
2023-01-23T17:17:37.301Z,101706.81
2023-01-23T17:20:09.173Z,101707.69
2023-01-23T17:22:40.707Z,101714.75
2023-01-23T17:25:18.502Z,101723.31
2023-01-23T17:28:03.616Z,101721.41
2023-01-23T17:30:43.633Z,101714.63
2023-01-23T17:33:29.782Z,101726.66
2023-01-23T17:36:04.729Z,101722.00
2023-01-23T17:38:36.686Z,101726.34
2023-01-23T17:41:08.351Z,101726.03
2023-01-23T17:43:40.560Z,101731.50
2023-01-23T17:46:16.539Z,101730.97
2023-01-23T17:48:47.776Z,101739.22
2023-01-23T17:51:22.427Z,101732.88
2023-01-23T17:53:53.503Z,101725.94
2023-01-23T17:56:24.461Z,101729.56
2023-01-23T17:58:55.821Z,101727.97
2023-01-23T18:01:27.736Z,101726.09
2023-01-23T18:03:58.946Z,101731.25
2023-01-23T18:06:30.579Z,101741.34
2023-01-23T18:09:02.158Z,101731.66
2023-01-23T18:11:33.326Z,101747.00
2023-01-23T18:14:34.158Z,101741.09
2023-01-23T18:17:23.293Z,101736.41
2023-01-23T18:19:55.423Z,101743.97
2023-01-23T18:22:27.108Z,101744.63
2023-01-23T18:24:58.161Z,101729.31
2023-01-23T18:27:29.577Z,101740.16
2023-01-23T18:30:22.765Z,101736.91
2023-01-23T18:33:07.139Z,101739.66
2023-01-23T18:35:45.098Z,101740.50
2023-01-23T18:38:32.979Z,101749.31
2023-01-23T18:41:23.364Z,101751.16
2023-01-23T18:44:06.424Z,101757.16
2023-01-23T18:46:37.649Z,101750.38
2023-01-23T18:49:09.179Z,101748.56
2023-01-23T18:51:44.948Z,101750.75
2023-01-23T18:54:27.510Z,101758.78
2023-01-23T18:57:18.565Z,101753.84
2023-01-23T19:00:02.801Z,101765.53
2023-01-23T19:02:54.766Z,101762.28
2023-01-23T19:05:34.154Z,101765.78
2023-01-23T19:08:05.469Z,101744.84
2023-01-23T19:10:48.531Z,101774.06
2023-01-23T19:13:43.555Z,101782.28
2023-01-23T19:16:30.942Z,101781.38
2023-01-23T19:19:20.576Z,101788.31
2023-01-23T19:21:51.687Z,101788.63
2023-01-23T19:24:22.964Z,101789.59
2023-01-23T19:26:55.645Z,101800.59
2023-01-23T19:29:26.808Z,101805.28
2023-01-23T19:32:06.250Z,101809.50
2023-01-23T19:34:37.485Z,101809.31
2023-01-23T19:37:09.569Z,101816.16
2023-01-23T19:39:40.694Z,101807.47
2023-01-23T19:42:16.551Z,101814.59
2023-01-23T19:44:47.458Z,101807.78
2023-01-23T19:47:18.682Z,101811.91
2023-01-23T19:49:50.057Z,101809.41
2023-01-23T19:52:21.412Z,101815.66
2023-01-23T19:54:52.645Z,101807.63
2023-01-23T19:57:23.695Z,101806.25
2023-01-23T19:59:54.754Z,101806.63
2023-01-23T20:02:25.975Z,101810.97
2023-01-23T20:04:59.134Z,101803.88
2023-01-23T20:07:30.293Z,101803.34
2023-01-23T20:10:01.310Z,101794.63
2023-01-23T20:12:33.331Z,101796.78
2023-01-23T20:15:04.389Z,101797.88
2023-01-23T20:17:35.220Z,101797.75
2023-01-23T20:20:10.118Z,101801.75
2023-01-23T20:22:41.827Z,101787.09
2023-01-23T20:25:18.014Z,101781.28
2023-01-23T20:27:49.076Z,101778.75
2023-01-23T20:30:21.750Z,101773.09
2023-01-23T20:32:53.214Z,101770.72
2023-01-23T20:35:24.789Z,101773.69
2023-01-23T20:37:55.442Z,101775.97
2023-01-23T20:40:26.627Z,101773.28
2023-01-23T20:42:57.503Z,101772.22
2023-01-23T20:45:28.885Z,101772.59
2023-01-23T20:48:00.018Z,101777.63
2023-01-23T20:50:30.888Z,101782.22
2023-01-23T20:53:19.879Z,101781.31
2023-01-23T20:56:01.891Z,101788.63
2023-01-23T20:58:52.195Z,101791.78
2023-01-23T21:01:24.767Z,101797.53
2023-01-23T21:03:56.512Z,101805.50
2023-01-23T21:06:27.666Z,101793.47
2023-01-23T21:08:58.767Z,101795.41
2023-01-23T21:11:30.311Z,101790.00
2023-01-23T21:14:02.595Z,101788.28
2023-01-23T21:16:34.166Z,101773.94
2023-01-23T21:19:05.255Z,101783.66
2023-01-23T21:21:36.550Z,101784.44
2023-01-23T21:24:08.112Z,101787.25
2023-01-23T21:26:39.431Z,101786.81
2023-01-23T21:29:10.993Z,101776.09
2023-01-23T21:31:42.452Z,101788.84
2023-01-23T21:34:14.117Z,101792.88
2023-01-23T21:36:45.741Z,101780.53
2023-01-23T21:39:17.407Z,101787.81
2023-01-23T21:41:48.637Z,101781.59
2023-01-23T21:44:19.702Z,101785.66
2023-01-23T21:46:51.451Z,101787.66
2023-01-23T21:49:22.866Z,101784.28
2023-01-23T21:51:53.802Z,101776.59
2023-01-23T21:54:24.703Z,101780.97
2023-01-23T21:56:55.920Z,101784.44
2023-01-23T21:59:26.948Z,101776.84
2023-01-23T22:01:58.317Z,101776.88
2023-01-23T22:04:30.327Z,101779.81
2023-01-23T22:07:01.372Z,101780.69
2023-01-23T22:09:32.741Z,101783.44
2023-01-23T22:12:03.823Z,101779.59
2023-01-23T22:14:35.688Z,101785.69
2023-01-23T22:17:09.400Z,101782.28
2023-01-23T22:19:40.476Z,101784.47
2023-01-23T22:22:11.569Z,101792.38
2023-01-23T22:24:42.619Z,101780.78
2023-01-23T22:27:13.705Z,101783.97
2023-01-23T22:29:45.240Z,101779.41
2023-01-23T22:32:16.349Z,101783.81
2023-01-23T22:34:47.567Z,101778.22
2023-01-23T22:37:19.683Z,101778.91
2023-01-23T22:39:51.729Z,101775.00
2023-01-23T22:42:22.721Z,101765.44
2023-01-23T22:44:53.909Z,101767.97
2023-01-23T22:47:25.024Z,101766.16
2023-01-23T22:49:56.407Z,101762.97
2023-01-23T22:52:27.502Z,101764.13
2023-01-23T22:54:58.507Z,101761.50
2023-01-23T22:57:29.619Z,101756.53
2023-01-23T23:00:00.668Z,101762.78
2023-01-23T23:02:33.578Z,101767.38
2023-01-23T23:05:04.526Z,101764.44
2023-01-23T23:07:39.279Z,101759.78
2023-01-23T23:10:12.655Z,101772.09
2023-01-23T23:12:44.065Z,101769.91
2023-01-23T23:15:17.367Z,101768.41
2023-01-23T23:17:48.354Z,101764.22
2023-01-23T23:20:19.824Z,101764.25
2023-01-23T23:22:51.068Z,101769.88
2023-01-23T23:25:22.589Z,101759.09
2023-01-23T23:27:53.799Z,101762.69
2023-01-23T23:30:25.255Z,101763.22
2023-01-23T23:32:56.367Z,101766.75
2023-01-23T23:35:27.575Z,101763.81
2023-01-23T23:37:58.190Z,101768.91
2023-01-23T23:40:29.165Z,101768.13
2023-01-23T23:43:00.205Z,101768.50
2023-01-23T23:45:31.553Z,101765.59
2023-01-23T23:48:03.635Z,101767.84
2023-01-23T23:50:35.361Z,101758.06
2023-01-23T23:53:05.780Z,101750.69
2023-01-23T23:55:36.890Z,101765.41
2023-01-23T23:58:08.100Z,101748.56
